sensor_id;sensor_type;location;lat;lon;timestamp;temperature;humidity
14378;DHT22;7272;53.668;9.578;2023-01-10T00:01:06;8.00;99.90
14378;DHT22;7272;53.668;9.578;2023-01-10T00:04:08;8.00;99.90
14378;DHT22;7272;53.668;9.578;2023-01-10T00:07:10;8.00;99.90
14378;DHT22;7272;53.668;9.578;2023-01-10T00:10:12;7.90;99.90
14378;DHT22;7272;53.668;9.578;2023-01-10T00:13:14;7.90;99.90
14378;DHT22;7272;53.668;9.578;2023-01-10T00:16:26;7.80;99.90
14378;DHT22;7272;53.668;9.578;2023-01-10T00:19:27;7.80;99.90
14378;DHT22;7272;53.668;9.578;2023-01-10T00:22:29;7.70;99.90
14378;DHT22;7272;53.668;9.578;2023-01-10T00:25:31;7.70;99.90
14378;DHT22;7272;53.668;9.578;2023-01-10T00:28:35;7.70;99.90
14378;DHT22;7272;53.668;9.578;2023-01-10T00:31:40;7.60;99.90
14378;DHT22;7272;53.668;9.578;2023-01-10T00:34:42;7.60;99.90
14378;DHT22;7272;53.668;9.578;2023-01-10T00:37:44;7.50;99.90
14378;DHT22;7272;53.668;9.578;2023-01-10T00:40:45;7.50;99.90
14378;DHT22;7272;53.668;9.578;2023-01-10T00:43:47;7.40;99.90
14378;DHT22;7272;53.668;9.578;2023-01-10T00:46:59;7.40;99.90
14378;DHT22;7272;53.668;9.578;2023-01-10T00:50:01;7.30;99.90
14378;DHT22;7272;53.668;9.578;2023-01-10T00:53:05;7.30;99.90
14378;DHT22;7272;53.668;9.578;2023-01-10T00:56:07;7.30;99.90
14378;DHT22;7272;53.668;9.578;2023-01-10T00:59:09;7.20;99.90
14378;DHT22;7272;53.668;9.578;2023-01-10T01:02:12;7.20;99.90
14378;DHT22;7272;53.668;9.578;2023-01-10T01:05:14;7.10;99.90
14378;DHT22;7272;53.668;9.578;2023-01-10T01:08:17;7.10;99.90
14378;DHT22;7272;53.668;9.578;2023-01-10T01:11:19;7.10;99.90
14378;DHT22;7272;53.668;9.578;2023-01-10T01:14:21;7.10;99.90
14378;DHT22;7272;53.668;9.578;2023-01-10T01:17:25;7.00;99.90
14378;DHT22;7272;53.668;9.578;2023-01-10T01:20:27;7.00;99.90
14378;DHT22;7272;53.668;9.578;2023-01-10T01:23:29;7.00;99.90
14378;DHT22;7272;53.668;9.578;2023-01-10T01:26:31;7.10;99.90
14378;DHT22;7272;53.668;9.578;2023-01-10T01:29:34;7.10;99.90
14378;DHT22;7272;53.668;9.578;2023-01-10T01:32:38;7.10;99.90
14378;DHT22;7272;53.668;9.578;2023-01-10T01:35:41;7.10;99.90
14378;DHT22;7272;53.668;9.578;2023-01-10T01:38:43;7.20;99.90
14378;DHT22;7272;53.668;9.578;2023-01-10T01:41:45;7.20;99.90
14378;DHT22;7272;53.668;9.578;2023-01-10T01:45:23;7.20;99.90
14378;DHT22;7272;53.668;9.578;2023-01-10T01:48:32;7.30;99.90
14378;DHT22;7272;53.668;9.578;2023-01-10T01:51:36;7.30;99.90
14378;DHT22;7272;53.668;9.578;2023-01-10T01:54:37;7.30;99.90
14378;DHT22;7272;53.668;9.578;2023-01-10T01:57:40;7.30;99.90
14378;DHT22;7272;53.668;9.578;2023-01-10T02:00:42;7.30;99.90
14378;DHT22;7272;53.668;9.578;2023-01-10T02:03:48;7.30;99.90
14378;DHT22;7272;53.668;9.578;2023-01-10T02:06:53;7.30;99.90
14378;DHT22;7272;53.668;9.578;2023-01-10T02:10:00;7.30;99.90
14378;DHT22;7272;53.668;9.578;2023-01-10T02:13:05;7.30;99.90
14378;DHT22;7272;53.668;9.578;2023-01-10T02:16:08;7.30;99.90
14378;DHT22;7272;53.668;9.578;2023-01-10T02:19:20;7.30;99.90
14378;DHT22;7272;53.668;9.578;2023-01-10T02:33:16;7.30;99.90
14378;DHT22;7272;53.668;9.578;2023-01-10T02:36:33;7.30;99.90
14378;DHT22;7272;53.668;9.578;2023-01-10T02:39:45;7.30;99.90
14378;DHT22;7272;53.668;9.578;2023-01-10T02:42:54;7.30;99.90
14378;DHT22;7272;53.668;9.578;2023-01-10T02:45:59;7.30;99.90
14378;DHT22;7272;53.668;9.578;2023-01-10T02:49:04;7.30;99.90
14378;DHT22;7272;53.668;9.578;2023-01-10T02:52:06;7.40;99.90
14378;DHT22;7272;53.668;9.578;2023-01-10T02:55:08;7.40;99.90
14378;DHT22;7272;53.668;9.578;2023-01-10T02:58:19;7.40;99.90
14378;DHT22;7272;53.668;9.578;2023-01-10T03:01:31;7.40;99.90
14378;DHT22;7272;53.668;9.578;2023-01-10T03:04:43;7.40;99.90
14378;DHT22;7272;53.668;9.578;2023-01-10T03:07:55;7.30;99.90
14378;DHT22;7272;53.668;9.578;2023-01-10T03:11:03;7.30;99.90
14378;DHT22;7272;53.668;9.578;2023-01-10T03:14:11;7.30;99.90
14378;DHT22;7272;53.668;9.578;2023-01-10T03:17:16;7.20;99.90
14378;DHT22;7272;53.668;9.578;2023-01-10T03:20:21;7.20;99.90
14378;DHT22;7272;53.668;9.578;2023-01-10T03:23:24;7.20;99.90
14378;DHT22;7272;53.668;9.578;2023-01-10T03:26:31;7.10;99.90
14378;DHT22;7272;53.668;9.578;2023-01-10T03:29:42;7.10;99.90
14378;DHT22;7272;53.668;9.578;2023-01-10T03:32:45;7.10;99.90
14378;DHT22;7272;53.668;9.578;2023-01-10T03:36:01;7.10;99.90
14378;DHT22;7272;53.668;9.578;2023-01-10T03:39:10;7.00;99.90
14378;DHT22;7272;53.668;9.578;2023-01-10T03:42:20;7.00;99.90
14378;DHT22;7272;53.668;9.578;2023-01-10T03:45:27;7.00;99.90
14378;DHT22;7272;53.668;9.578;2023-01-10T03:48:32;7.00;99.90
14378;DHT22;7272;53.668;9.578;2023-01-10T03:51:38;6.90;99.90
14378;DHT22;7272;53.668;9.578;2023-01-10T03:54:41;6.90;99.90
14378;DHT22;7272;53.668;9.578;2023-01-10T03:57:44;6.90;99.90
14378;DHT22;7272;53.668;9.578;2023-01-10T04:00:46;6.90;99.90
14378;DHT22;7272;53.668;9.578;2023-01-10T04:03:48;6.80;99.90
14378;DHT22;7272;53.668;9.578;2023-01-10T04:06:51;6.80;99.90
14378;DHT22;7272;53.668;9.578;2023-01-10T04:09:53;6.80;99.90
14378;DHT22;7272;53.668;9.578;2023-01-10T04:12:58;6.90;99.90
14378;DHT22;7272;53.668;9.578;2023-01-10T04:16:00;7.00;99.90
14378;DHT22;7272;53.668;9.578;2023-01-10T04:19:02;7.00;99.90
14378;DHT22;7272;53.668;9.578;2023-01-10T04:22:05;7.10;99.90
14378;DHT22;7272;53.668;9.578;2023-01-10T04:25:07;7.10;99.90
14378;DHT22;7272;53.668;9.578;2023-01-10T04:28:09;7.10;99.90
14378;DHT22;7272;53.668;9.578;2023-01-10T04:31:11;7.20;99.90
14378;DHT22;7272;53.668;9.578;2023-01-10T04:34:13;7.20;99.90
14378;DHT22;7272;53.668;9.578;2023-01-10T04:37:16;7.20;99.90
14378;DHT22;7272;53.668;9.578;2023-01-10T04:40:18;7.20;99.90
14378;DHT22;7272;53.668;9.578;2023-01-10T04:43:24;7.30;99.90
14378;DHT22;7272;53.668;9.578;2023-01-10T04:46:26;7.30;99.90
14378;DHT22;7272;53.668;9.578;2023-01-10T04:49:27;7.30;99.90
14378;DHT22;7272;53.668;9.578;2023-01-10T04:52:31;7.30;99.90
14378;DHT22;7272;53.668;9.578;2023-01-10T04:55:33;7.30;99.90
14378;DHT22;7272;53.668;9.578;2023-01-10T04:58:36;7.40;99.90
14378;DHT22;7272;53.668;9.578;2023-01-10T05:01:38;7.40;99.90
14378;DHT22;7272;53.668;9.578;2023-01-10T05:04:40;7.40;99.90
14378;DHT22;7272;53.668;9.578;2023-01-10T05:07:45;7.40;99.90
14378;DHT22;7272;53.668;9.578;2023-01-10T05:10:46;7.40;99.90
14378;DHT22;7272;53.668;9.578;2023-01-10T05:13:48;7.40;99.90
14378;DHT22;7272;53.668;9.578;2023-01-10T05:16:50;7.40;99.90
14378;DHT22;7272;53.668;9.578;2023-01-10T05:19:52;7.40;99.90
14378;DHT22;7272;53.668;9.578;2023-01-10T05:22:55;7.30;99.90
14378;DHT22;7272;53.668;9.578;2023-01-10T05:26:04;7.30;99.90
14378;DHT22;7272;53.668;9.578;2023-01-10T05:29:08;7.20;99.90
14378;DHT22;7272;53.668;9.578;2023-01-10T05:32:10;7.20;99.90
14378;DHT22;7272;53.668;9.578;2023-01-10T05:35:12;7.20;99.90
14378;DHT22;7272;53.668;9.578;2023-01-10T05:38:16;7.10;99.90
14378;DHT22;7272;53.668;9.578;2023-01-10T05:41:18;7.10;99.90
14378;DHT22;7272;53.668;9.578;2023-01-10T05:44:20;7.10;99.90
14378;DHT22;7272;53.668;9.578;2023-01-10T05:47:21;7.10;99.90
14378;DHT22;7272;53.668;9.578;2023-01-10T05:50:25;7.10;99.90
14378;DHT22;7272;53.668;9.578;2023-01-10T05:53:28;7.10;99.90
14378;DHT22;7272;53.668;9.578;2023-01-10T05:56:30;7.10;99.90
14378;DHT22;7272;53.668;9.578;2023-01-10T05:59:32;7.10;99.90
14378;DHT22;7272;53.668;9.578;2023-01-10T06:02:34;7.10;99.90
14378;DHT22;7272;53.668;9.578;2023-01-10T06:05:35;7.10;99.90
14378;DHT22;7272;53.668;9.578;2023-01-10T06:08:39;7.00;99.90
14378;DHT22;7272;53.668;9.578;2023-01-10T06:11:41;7.00;99.90
14378;DHT22;7272;53.668;9.578;2023-01-10T06:14:42;6.90;99.90
14378;DHT22;7272;53.668;9.578;2023-01-10T06:17:45;6.90;99.90
14378;DHT22;7272;53.668;9.578;2023-01-10T06:20:46;6.90;99.90
14378;DHT22;7272;53.668;9.578;2023-01-10T06:23:50;6.80;99.90
14378;DHT22;7272;53.668;9.578;2023-01-10T06:26:51;6.80;99.90
14378;DHT22;7272;53.668;9.578;2023-01-10T06:29:53;6.80;99.90
14378;DHT22;7272;53.668;9.578;2023-01-10T06:33:00;6.80;99.90
14378;DHT22;7272;53.668;9.578;2023-01-10T06:36:03;6.70;99.90
14378;DHT22;7272;53.668;9.578;2023-01-10T06:39:06;6.70;99.90
14378;DHT22;7272;53.668;9.578;2023-01-10T06:42:08;6.70;99.90
14378;DHT22;7272;53.668;9.578;2023-01-10T06:45:10;6.60;99.90
14378;DHT22;7272;53.668;9.578;2023-01-10T06:48:12;6.60;99.90
14378;DHT22;7272;53.668;9.578;2023-01-10T06:51:15;6.70;99.90
14378;DHT22;7272;53.668;9.578;2023-01-10T06:54:19;6.60;99.90
14378;DHT22;7272;53.668;9.578;2023-01-10T06:57:21;6.60;99.90
14378;DHT22;7272;53.668;9.578;2023-01-10T07:00:23;6.70;99.90
14378;DHT22;7272;53.668;9.578;2023-01-10T07:03:27;6.70;99.90
14378;DHT22;7272;53.668;9.578;2023-01-10T07:06:28;6.70;99.90
14378;DHT22;7272;53.668;9.578;2023-01-10T07:09:32;6.70;99.90
14378;DHT22;7272;53.668;9.578;2023-01-10T07:12:34;6.70;99.90
14378;DHT22;7272;53.668;9.578;2023-01-10T07:15:36;6.70;99.90
14378;DHT22;7272;53.668;9.578;2023-01-10T07:18:39;6.60;99.90
14378;DHT22;7272;53.668;9.578;2023-01-10T07:21:41;6.60;99.90
14378;DHT22;7272;53.668;9.578;2023-01-10T07:24:44;6.60;99.90
14378;DHT22;7272;53.668;9.578;2023-01-10T07:27:46;6.60;99.90
14378;DHT22;7272;53.668;9.578;2023-01-10T07:30:48;6.50;99.90
14378;DHT22;7272;53.668;9.578;2023-01-10T07:33:50;6.50;99.90
14378;DHT22;7272;53.668;9.578;2023-01-10T07:36:52;6.40;99.90
14378;DHT22;7272;53.668;9.578;2023-01-10T07:39:56;6.40;99.90
14378;DHT22;7272;53.668;9.578;2023-01-10T07:42:58;6.40;99.90
14378;DHT22;7272;53.668;9.578;2023-01-10T07:46:02;6.40;99.90
14378;DHT22;7272;53.668;9.578;2023-01-10T07:49:04;6.30;99.90
14378;DHT22;7272;53.668;9.578;2023-01-10T07:52:06;6.30;99.90
14378;DHT22;7272;53.668;9.578;2023-01-10T07:55:10;6.20;99.90
14378;DHT22;7272;53.668;9.578;2023-01-10T07:58:12;6.20;99.90
14378;DHT22;7272;53.668;9.578;2023-01-10T08:01:14;6.20;99.90
14378;DHT22;7272;53.668;9.578;2023-01-10T08:04:16;6.20;99.90
14378;DHT22;7272;53.668;9.578;2023-01-10T08:07:18;6.20;99.90
14378;DHT22;7272;53.668;9.578;2023-01-10T08:10:21;6.30;99.90
14378;DHT22;7272;53.668;9.578;2023-01-10T08:13:23;6.30;99.90
14378;DHT22;7272;53.668;9.578;2023-01-10T08:16:24;6.30;99.90
14378;DHT22;7272;53.668;9.578;2023-01-10T08:19:26;6.40;99.90
14378;DHT22;7272;53.668;9.578;2023-01-10T08:22:28;6.40;99.90
14378;DHT22;7272;53.668;9.578;2023-01-10T08:25:32;6.40;99.90
14378;DHT22;7272;53.668;9.578;2023-01-10T08:28:33;6.40;99.90
14378;DHT22;7272;53.668;9.578;2023-01-10T08:31:35;6.50;99.90
14378;DHT22;7272;53.668;9.578;2023-01-10T08:34:37;6.50;99.90
14378;DHT22;7272;53.668;9.578;2023-01-10T08:37:39;6.50;99.90
14378;DHT22;7272;53.668;9.578;2023-01-10T08:40:42;6.60;99.90
14378;DHT22;7272;53.668;9.578;2023-01-10T08:43:44;6.70;99.90
14378;DHT22;7272;53.668;9.578;2023-01-10T08:46:49;6.80;99.90
14378;DHT22;7272;53.668;9.578;2023-01-10T08:49:51;6.80;99.90
14378;DHT22;7272;53.668;9.578;2023-01-10T08:52:53;6.90;99.90
14378;DHT22;7272;53.668;9.578;2023-01-10T08:55:56;6.90;99.90
14378;DHT22;7272;53.668;9.578;2023-01-10T08:58:58;6.90;99.90
14378;DHT22;7272;53.668;9.578;2023-01-10T09:02:00;6.90;99.90
14378;DHT22;7272;53.668;9.578;2023-01-10T09:05:02;7.00;99.90
14378;DHT22;7272;53.668;9.578;2023-01-10T09:08:04;7.00;99.90
14378;DHT22;7272;53.668;9.578;2023-01-10T09:11:07;7.10;99.90
14378;DHT22;7272;53.668;9.578;2023-01-10T09:14:09;7.20;99.90
14378;DHT22;7272;53.668;9.578;2023-01-10T09:17:11;7.20;99.90
14378;DHT22;7272;53.668;9.578;2023-01-10T09:20:13;7.30;99.90
14378;DHT22;7272;53.668;9.578;2023-01-10T09:23:16;7.30;99.90
14378;DHT22;7272;53.668;9.578;2023-01-10T09:26:21;7.30;99.90
14378;DHT22;7272;53.668;9.578;2023-01-10T09:29:23;7.40;99.90
14378;DHT22;7272;53.668;9.578;2023-01-10T09:32:25;7.40;99.90
14378;DHT22;7272;53.668;9.578;2023-01-10T09:35:28;7.50;99.90
14378;DHT22;7272;53.668;9.578;2023-01-10T09:38:30;7.50;99.90
14378;DHT22;7272;53.668;9.578;2023-01-10T09:41:48;7.60;99.90
14378;DHT22;7272;53.668;9.578;2023-01-10T09:44:57;7.60;99.90
14378;DHT22;7272;53.668;9.578;2023-01-10T09:48:03;7.60;99.90
14378;DHT22;7272;53.668;9.578;2023-01-10T09:51:16;7.60;99.90
14378;DHT22;7272;53.668;9.578;2023-01-10T09:54:25;7.70;99.90
14378;DHT22;7272;53.668;9.578;2023-01-10T09:57:29;7.70;99.90
14378;DHT22;7272;53.668;9.578;2023-01-10T10:00:37;7.70;99.90
14378;DHT22;7272;53.668;9.578;2023-01-10T10:03:45;7.80;99.90
14378;DHT22;7272;53.668;9.578;2023-01-10T10:06:49;7.80;99.90
14378;DHT22;7272;53.668;9.578;2023-01-10T10:09:51;7.90;99.90
14378;DHT22;7272;53.668;9.578;2023-01-10T10:13:03;7.90;99.90
14378;DHT22;7272;53.668;9.578;2023-01-10T10:16:18;8.00;99.90
14378;DHT22;7272;53.668;9.578;2023-01-10T10:19:32;8.00;99.90
14378;DHT22;7272;53.668;9.578;2023-01-10T10:22:43;8.10;99.90
14378;DHT22;7272;53.668;9.578;2023-01-10T10:26:00;8.10;99.90
14378;DHT22;7272;53.668;9.578;2023-01-10T10:29:26;8.20;99.90
14378;DHT22;7272;53.668;9.578;2023-01-10T10:32:44;8.20;99.90
14378;DHT22;7272;53.668;9.578;2023-01-10T10:35:54;8.20;99.90
14378;DHT22;7272;53.668;9.578;2023-01-10T10:38:59;8.30;99.90
14378;DHT22;7272;53.668;9.578;2023-01-10T10:42:02;8.30;99.90
14378;DHT22;7272;53.668;9.578;2023-01-10T10:45:16;8.30;99.90
14378;DHT22;7272;53.668;9.578;2023-01-10T10:48:28;8.30;99.90
14378;DHT22;7272;53.668;9.578;2023-01-10T10:51:59;8.30;99.90
14378;DHT22;7272;53.668;9.578;2023-01-10T10:55:13;8.40;99.90
14378;DHT22;7272;53.668;9.578;2023-01-10T10:58:16;8.40;99.90
14378;DHT22;7272;53.668;9.578;2023-01-10T11:01:20;8.40;99.90
14378;DHT22;7272;53.668;9.578;2023-01-10T11:04:23;8.40;99.90
14378;DHT22;7272;53.668;9.578;2023-01-10T11:07:28;8.50;99.90
14378;DHT22;7272;53.668;9.578;2023-01-10T11:10:32;8.50;99.90
14378;DHT22;7272;53.668;9.578;2023-01-10T11:13:43;8.50;99.90
14378;DHT22;7272;53.668;9.578;2023-01-10T11:16:48;8.60;99.90
14378;DHT22;7272;53.668;9.578;2023-01-10T11:19:57;8.60;99.90
14378;DHT22;7272;53.668;9.578;2023-01-10T11:23:00;8.60;99.90
14378;DHT22;7272;53.668;9.578;2023-01-10T11:26:02;8.70;99.90
14378;DHT22;7272;53.668;9.578;2023-01-10T11:29:08;8.70;99.90
14378;DHT22;7272;53.668;9.578;2023-01-10T11:32:18;8.70;99.90
14378;DHT22;7272;53.668;9.578;2023-01-10T11:35:25;8.70;99.90
14378;DHT22;7272;53.668;9.578;2023-01-10T11:38:28;8.70;99.90
14378;DHT22;7272;53.668;9.578;2023-01-10T11:41:30;8.70;99.90
14378;DHT22;7272;53.668;9.578;2023-01-10T11:44:34;8.80;99.90
14378;DHT22;7272;53.668;9.578;2023-01-10T11:47:39;8.80;99.90
14378;DHT22;7272;53.668;9.578;2023-01-10T11:50:42;8.90;99.90
14378;DHT22;7272;53.668;9.578;2023-01-10T11:53:46;8.90;99.90
14378;DHT22;7272;53.668;9.578;2023-01-10T11:56:55;8.80;99.90
14378;DHT22;7272;53.668;9.578;2023-01-10T12:00:01;8.90;99.90
14378;DHT22;7272;53.668;9.578;2023-01-10T12:03:17;8.90;99.90
14378;DHT22;7272;53.668;9.578;2023-01-10T12:06:20;8.80;99.90
14378;DHT22;7272;53.668;9.578;2023-01-10T12:09:33;8.80;99.90
14378;DHT22;7272;53.668;9.578;2023-01-10T12:12:35;8.80;99.90
14378;DHT22;7272;53.668;9.578;2023-01-10T12:15:39;8.80;99.90
14378;DHT22;7272;53.668;9.578;2023-01-10T12:18:42;8.90;99.90
14378;DHT22;7272;53.668;9.578;2023-01-10T12:21:44;8.90;99.90
14378;DHT22;7272;53.668;9.578;2023-01-10T12:24:47;8.90;99.90
14378;DHT22;7272;53.668;9.578;2023-01-10T12:27:51;8.90;99.90
14378;DHT22;7272;53.668;9.578;2023-01-10T12:30:56;8.90;99.90
14378;DHT22;7272;53.668;9.578;2023-01-10T12:34:04;8.90;99.90
14378;DHT22;7272;53.668;9.578;2023-01-10T12:37:12;8.90;99.90
14378;DHT22;7272;53.668;9.578;2023-01-10T12:40:20;8.90;99.90
14378;DHT22;7272;53.668;9.578;2023-01-10T12:43:29;8.90;99.90
14378;DHT22;7272;53.668;9.578;2023-01-10T12:46:57;8.90;99.90
14378;DHT22;7272;53.668;9.578;2023-01-10T12:50:08;8.90;99.90
14378;DHT22;7272;53.668;9.578;2023-01-10T12:53:32;8.90;99.90
14378;DHT22;7272;53.668;9.578;2023-01-10T12:56:37;8.90;99.90
14378;DHT22;7272;53.668;9.578;2023-01-10T12:59:41;8.90;99.90
14378;DHT22;7272;53.668;9.578;2023-01-10T13:02:46;8.90;99.90
14378;DHT22;7272;53.668;9.578;2023-01-10T13:05:50;9.00;99.90
14378;DHT22;7272;53.668;9.578;2023-01-10T13:08:54;9.10;99.90
14378;DHT22;7272;53.668;9.578;2023-01-10T13:12:01;9.10;99.90
14378;DHT22;7272;53.668;9.578;2023-01-10T13:15:09;9.20;99.90
14378;DHT22;7272;53.668;9.578;2023-01-10T13:18:16;9.20;99.90
14378;DHT22;7272;53.668;9.578;2023-01-10T13:21:22;9.20;99.90
14378;DHT22;7272;53.668;9.578;2023-01-10T13:24:25;9.20;99.90
14378;DHT22;7272;53.668;9.578;2023-01-10T13:27:30;9.10;99.90
14378;DHT22;7272;53.668;9.578;2023-01-10T13:30:39;9.10;99.90
14378;DHT22;7272;53.668;9.578;2023-01-10T13:33:51;9.00;99.90
14378;DHT22;7272;53.668;9.578;2023-01-10T13:36:57;9.00;99.90
14378;DHT22;7272;53.668;9.578;2023-01-10T13:40:00;9.00;99.90
14378;DHT22;7272;53.668;9.578;2023-01-10T13:43:36;9.00;99.90
14378;DHT22;7272;53.668;9.578;2023-01-10T13:46:44;9.00;99.90
14378;DHT22;7272;53.668;9.578;2023-01-10T13:49:46;9.00;99.90
14378;DHT22;7272;53.668;9.578;2023-01-10T13:52:49;8.90;99.90
14378;DHT22;7272;53.668;9.578;2023-01-10T13:55:55;8.90;99.90
14378;DHT22;7272;53.668;9.578;2023-01-10T13:58:57;8.80;99.90
14378;DHT22;7272;53.668;9.578;2023-01-10T14:02:25;8.80;99.90
14378;DHT22;7272;53.668;9.578;2023-01-10T14:05:31;8.70;99.90
14378;DHT22;7272;53.668;9.578;2023-01-10T14:08:34;8.70;99.90
14378;DHT22;7272;53.668;9.578;2023-01-10T14:11:50;8.70;99.90
14378;DHT22;7272;53.668;9.578;2023-01-10T14:14:56;8.60;99.90
14378;DHT22;7272;53.668;9.578;2023-01-10T14:18:00;8.60;99.90
14378;DHT22;7272;53.668;9.578;2023-01-10T14:21:05;8.60;99.90
14378;DHT22;7272;53.668;9.578;2023-01-10T14:24:21;8.60;99.90
14378;DHT22;7272;53.668;9.578;2023-01-10T14:27:36;8.50;99.90
14378;DHT22;7272;53.668;9.578;2023-01-10T14:30:39;8.50;99.90
14378;DHT22;7272;53.668;9.578;2023-01-10T14:33:42;8.40;99.90
14378;DHT22;7272;53.668;9.578;2023-01-10T14:36:48;8.40;99.90
14378;DHT22;7272;53.668;9.578;2023-01-10T14:39:54;8.40;99.90
14378;DHT22;7272;53.668;9.578;2023-01-10T14:42:57;8.30;99.90
14378;DHT22;7272;53.668;9.578;2023-01-10T14:46:04;8.40;99.90
14378;DHT22;7272;53.668;9.578;2023-01-10T14:49:20;8.30;99.90
14378;DHT22;7272;53.668;9.578;2023-01-10T14:52:24;8.30;99.90
14378;DHT22;7272;53.668;9.578;2023-01-10T14:55:28;8.20;99.90
14378;DHT22;7272;53.668;9.578;2023-01-10T14:58:31;8.20;99.90
14378;DHT22;7272;53.668;9.578;2023-01-10T15:01:32;8.10;99.90
14378;DHT22;7272;53.668;9.578;2023-01-10T15:04:35;8.10;99.90
14378;DHT22;7272;53.668;9.578;2023-01-10T15:07:38;8.10;99.90
14378;DHT22;7272;53.668;9.578;2023-01-10T15:10:43;8.00;99.90
14378;DHT22;7272;53.668;9.578;2023-01-10T15:13:51;7.90;99.90
14378;DHT22;7272;53.668;9.578;2023-01-10T15:16:56;7.90;99.90
14378;DHT22;7272;53.668;9.578;2023-01-10T15:20:03;7.90;99.90
14378;DHT22;7272;53.668;9.578;2023-01-10T15:23:05;7.80;99.90
14378;DHT22;7272;53.668;9.578;2023-01-10T15:26:09;7.80;99.90
14378;DHT22;7272;53.668;9.578;2023-01-10T15:29:20;7.80;99.90
14378;DHT22;7272;53.668;9.578;2023-01-10T15:32:26;7.70;99.90
14378;DHT22;7272;53.668;9.578;2023-01-10T15:35:29;7.70;99.90
14378;DHT22;7272;53.668;9.578;2023-01-10T15:38:31;7.70;99.90
14378;DHT22;7272;53.668;9.578;2023-01-10T15:41:37;7.70;99.90
14378;DHT22;7272;53.668;9.578;2023-01-10T15:44:40;7.70;99.90
14378;DHT22;7272;53.668;9.578;2023-01-10T15:47:50;7.70;99.90
14378;DHT22;7272;53.668;9.578;2023-01-10T15:50:56;7.60;99.90
14378;DHT22;7272;53.668;9.578;2023-01-10T15:54:01;7.60;99.90
14378;DHT22;7272;53.668;9.578;2023-01-10T15:57:21;7.60;99.90
14378;DHT22;7272;53.668;9.578;2023-01-10T16:00:24;7.60;99.90
14378;DHT22;7272;53.668;9.578;2023-01-10T16:03:30;7.60;99.90
14378;DHT22;7272;53.668;9.578;2023-01-10T16:06:35;7.60;99.90
14378;DHT22;7272;53.668;9.578;2023-01-10T16:09:38;7.60;99.90
14378;DHT22;7272;53.668;9.578;2023-01-10T16:12:42;7.60;99.90
14378;DHT22;7272;53.668;9.578;2023-01-10T16:16:02;7.60;99.90
14378;DHT22;7272;53.668;9.578;2023-01-10T16:19:07;7.60;99.90
14378;DHT22;7272;53.668;9.578;2023-01-10T16:22:12;7.60;99.90
14378;DHT22;7272;53.668;9.578;2023-01-10T16:25:18;7.50;99.90
14378;DHT22;7272;53.668;9.578;2023-01-10T16:28:22;7.50;99.90
14378;DHT22;7272;53.668;9.578;2023-01-10T16:31:26;7.50;99.90
14378;DHT22;7272;53.668;9.578;2023-01-10T16:34:28;7.50;99.90
14378;DHT22;7272;53.668;9.578;2023-01-10T16:37:33;7.50;99.90
14378;DHT22;7272;53.668;9.578;2023-01-10T16:40:37;7.60;99.90
14378;DHT22;7272;53.668;9.578;2023-01-10T16:43:41;7.50;99.90
14378;DHT22;7272;53.668;9.578;2023-01-10T16:46:42;7.50;99.90
14378;DHT22;7272;53.668;9.578;2023-01-10T16:49:44;7.50;99.90
14378;DHT22;7272;53.668;9.578;2023-01-10T16:52:46;7.50;99.90
14378;DHT22;7272;53.668;9.578;2023-01-10T16:55:50;7.50;99.90
14378;DHT22;7272;53.668;9.578;2023-01-10T16:58:54;7.50;99.90
14378;DHT22;7272;53.668;9.578;2023-01-10T17:01:57;7.50;99.90
14378;DHT22;7272;53.668;9.578;2023-01-10T17:04:59;7.50;99.90
14378;DHT22;7272;53.668;9.578;2023-01-10T17:08:01;7.50;99.90
14378;DHT22;7272;53.668;9.578;2023-01-10T17:11:06;7.50;99.90
14378;DHT22;7272;53.668;9.578;2023-01-10T17:14:12;7.50;99.90
14378;DHT22;7272;53.668;9.578;2023-01-10T17:17:14;7.60;99.90
14378;DHT22;7272;53.668;9.578;2023-01-10T17:20:17;7.50;99.90
14378;DHT22;7272;53.668;9.578;2023-01-10T17:23:19;7.60;99.90
14378;DHT22;7272;53.668;9.578;2023-01-10T17:26:21;7.60;99.90
14378;DHT22;7272;53.668;9.578;2023-01-10T17:29:24;7.60;99.90
14378;DHT22;7272;53.668;9.578;2023-01-10T17:32:26;7.60;99.90
14378;DHT22;7272;53.668;9.578;2023-01-10T17:35:28;7.60;99.90
14378;DHT22;7272;53.668;9.578;2023-01-10T17:38:32;7.60;99.90
14378;DHT22;7272;53.668;9.578;2023-01-10T17:41:34;7.60;99.90
14378;DHT22;7272;53.668;9.578;2023-01-10T17:44:37;7.60;99.90
14378;DHT22;7272;53.668;9.578;2023-01-10T17:47:39;7.60;99.90
14378;DHT22;7272;53.668;9.578;2023-01-10T17:50:41;7.60;99.90
14378;DHT22;7272;53.668;9.578;2023-01-10T17:53:44;7.60;99.90
14378;DHT22;7272;53.668;9.578;2023-01-10T17:56:45;7.60;99.90
14378;DHT22;7272;53.668;9.578;2023-01-10T17:59:49;7.60;99.90
14378;DHT22;7272;53.668;9.578;2023-01-10T18:02:51;7.60;99.90
14378;DHT22;7272;53.668;9.578;2023-01-10T18:05:54;7.60;99.90
14378;DHT22;7272;53.668;9.578;2023-01-10T18:08:56;7.60;99.90
14378;DHT22;7272;53.668;9.578;2023-01-10T18:12:00;7.60;99.90
14378;DHT22;7272;53.668;9.578;2023-01-10T18:15:04;7.60;99.90
14378;DHT22;7272;53.668;9.578;2023-01-10T18:18:06;7.60;99.90
14378;DHT22;7272;53.668;9.578;2023-01-10T18:21:11;7.60;99.90
14378;DHT22;7272;53.668;9.578;2023-01-10T18:24:13;7.60;99.90
14378;DHT22;7272;53.668;9.578;2023-01-10T18:27:15;7.60;99.90
14378;DHT22;7272;53.668;9.578;2023-01-10T18:30:19;7.60;99.90
14378;DHT22;7272;53.668;9.578;2023-01-10T18:33:22;7.60;99.90
14378;DHT22;7272;53.668;9.578;2023-01-10T18:36:24;7.60;99.90
14378;DHT22;7272;53.668;9.578;2023-01-10T18:39:26;7.60;99.90
14378;DHT22;7272;53.668;9.578;2023-01-10T18:42:28;7.60;99.90
14378;DHT22;7272;53.668;9.578;2023-01-10T18:45:31;7.60;99.90
14378;DHT22;7272;53.668;9.578;2023-01-10T18:48:33;7.60;99.90
14378;DHT22;7272;53.668;9.578;2023-01-10T18:51:35;7.60;99.90
14378;DHT22;7272;53.668;9.578;2023-01-10T18:54:37;7.60;99.90
14378;DHT22;7272;53.668;9.578;2023-01-10T18:57:39;7.60;99.90
14378;DHT22;7272;53.668;9.578;2023-01-10T19:00:42;7.60;99.90
14378;DHT22;7272;53.668;9.578;2023-01-10T19:03:45;7.60;99.90
14378;DHT22;7272;53.668;9.578;2023-01-10T19:06:47;7.60;99.90
14378;DHT22;7272;53.668;9.578;2023-01-10T19:09:49;7.70;99.90
14378;DHT22;7272;53.668;9.578;2023-01-10T19:12:50;7.60;99.90
14378;DHT22;7272;53.668;9.578;2023-01-10T19:16:06;7.70;99.90
14378;DHT22;7272;53.668;9.578;2023-01-10T19:19:09;7.70;99.90
14378;DHT22;7272;53.668;9.578;2023-01-10T19:22:11;7.70;99.90
14378;DHT22;7272;53.668;9.578;2023-01-10T19:25:13;7.70;99.90
14378;DHT22;7272;53.668;9.578;2023-01-10T19:28:15;7.70;99.90
14378;DHT22;7272;53.668;9.578;2023-01-10T19:31:20;7.70;99.90
14378;DHT22;7272;53.668;9.578;2023-01-10T19:34:22;7.70;99.90
14378;DHT22;7272;53.668;9.578;2023-01-10T19:37:24;7.70;99.90
14378;DHT22;7272;53.668;9.578;2023-01-10T19:40:26;7.70;99.90
14378;DHT22;7272;53.668;9.578;2023-01-10T19:43:28;7.60;99.90
14378;DHT22;7272;53.668;9.578;2023-01-10T19:46:31;7.60;99.90
14378;DHT22;7272;53.668;9.578;2023-01-10T19:49:36;7.60;99.90
14378;DHT22;7272;53.668;9.578;2023-01-10T19:52:39;7.50;99.90
14378;DHT22;7272;53.668;9.578;2023-01-10T19:55:43;7.50;99.90
14378;DHT22;7272;53.668;9.578;2023-01-10T19:58:45;7.50;99.90
14378;DHT22;7272;53.668;9.578;2023-01-10T20:01:48;7.40;99.90
14378;DHT22;7272;53.668;9.578;2023-01-10T20:04:50;7.40;99.90
14378;DHT22;7272;53.668;9.578;2023-01-10T20:07:52;7.30;99.90
14378;DHT22;7272;53.668;9.578;2023-01-10T20:10:54;7.30;99.90
14378;DHT22;7272;53.668;9.578;2023-01-10T20:13:58;7.30;99.90
14378;DHT22;7272;53.668;9.578;2023-01-10T20:17:01;7.30;99.90